sensor_id;sensor_type;location;lat;lon;timestamp;temperature;humidity
19017;DHT22;9641;51.494;6.670;2023-12-04T00:00:07;0.90;99.90
19017;DHT22;9641;51.494;6.670;2023-12-04T00:02:40;1.00;99.90
19017;DHT22;9641;51.494;6.670;2023-12-04T00:05:08;1.00;93.80
19017;DHT22;9641;51.494;6.670;2023-12-04T00:07:34;1.00;96.10
19017;DHT22;9641;51.494;6.670;2023-12-04T00:10:02;1.00;92.10
19017;DHT22;9641;51.494;6.670;2023-12-04T00:12:30;1.00;97.90
19017;DHT22;9641;51.494;6.670;2023-12-04T00:14:57;1.00;54.80
19017;DHT22;9641;51.494;6.670;2023-12-04T00:17:24;1.00;44.70
19017;DHT22;9641;51.494;6.670;2023-12-04T00:19:51;1.00;57.00
19017;DHT22;9641;51.494;6.670;2023-12-04T00:22:18;1.00;36.00
19017;DHT22;9641;51.494;6.670;2023-12-04T00:24:45;1.00;23.50
19017;DHT22;9641;51.494;6.670;2023-12-04T00:27:12;1.10;1.00
19017;DHT22;9641;51.494;6.670;2023-12-04T00:29:40;1.10;3.00
19017;DHT22;9641;51.494;6.670;2023-12-04T00:32:07;1.10;1.00
19017;DHT22;9641;51.494;6.670;2023-12-04T00:34:34;1.10;1.00
19017;DHT22;9641;51.494;6.670;2023-12-04T00:37:01;1.10;1.00
19017;DHT22;9641;51.494;6.670;2023-12-04T00:39:29;1.00;1.00
19017;DHT22;9641;51.494;6.670;2023-12-04T00:41:56;1.10;1.00
19017;DHT22;9641;51.494;6.670;2023-12-04T00:44:23;1.10;1.00
19017;DHT22;9641;51.494;6.670;2023-12-04T00:46:51;1.10;1.00
19017;DHT22;9641;51.494;6.670;2023-12-04T00:49:18;1.20;1.00
19017;DHT22;9641;51.494;6.670;2023-12-04T00:51:45;1.20;1.00
19017;DHT22;9641;51.494;6.670;2023-12-04T00:54:13;1.20;1.00
19017;DHT22;9641;51.494;6.670;2023-12-04T00:56:40;1.20;1.00
19017;DHT22;9641;51.494;6.670;2023-12-04T00:59:09;1.20;1.00
19017;DHT22;9641;51.494;6.670;2023-12-04T01:01:36;1.20;1.00
19017;DHT22;9641;51.494;6.670;2023-12-04T01:04:05;1.20;1.00
19017;DHT22;9641;51.494;6.670;2023-12-04T01:06:32;1.30;1.00
19017;DHT22;9641;51.494;6.670;2023-12-04T01:08:59;1.20;1.00
19017;DHT22;9641;51.494;6.670;2023-12-04T01:11:26;1.20;1.00
19017;DHT22;9641;51.494;6.670;2023-12-04T01:13:54;1.20;1.00
19017;DHT22;9641;51.494;6.670;2023-12-04T01:16:21;1.20;1.00
19017;DHT22;9641;51.494;6.670;2023-12-04T01:18:48;1.10;1.00
19017;DHT22;9641;51.494;6.670;2023-12-04T01:21:17;1.20;1.00
19017;DHT22;9641;51.494;6.670;2023-12-04T01:23:44;1.10;1.00
19017;DHT22;9641;51.494;6.670;2023-12-04T01:26:11;1.20;1.00
19017;DHT22;9641;51.494;6.670;2023-12-04T01:28:38;1.20;1.00
19017;DHT22;9641;51.494;6.670;2023-12-04T01:31:06;1.10;1.00
19017;DHT22;9641;51.494;6.670;2023-12-04T01:33:33;1.20;1.00
19017;DHT22;9641;51.494;6.670;2023-12-04T01:36:02;1.20;1.00
19017;DHT22;9641;51.494;6.670;2023-12-04T01:38:30;1.10;1.00
19017;DHT22;9641;51.494;6.670;2023-12-04T01:40:57;1.10;1.00
19017;DHT22;9641;51.494;6.670;2023-12-04T01:43:24;1.20;1.00
19017;DHT22;9641;51.494;6.670;2023-12-04T01:45:52;1.20;1.00
19017;DHT22;9641;51.494;6.670;2023-12-04T01:48:20;1.20;1.00
19017;DHT22;9641;51.494;6.670;2023-12-04T01:50:47;1.20;1.00
19017;DHT22;9641;51.494;6.670;2023-12-04T01:53:14;1.20;1.00
19017;DHT22;9641;51.494;6.670;2023-12-04T01:55:43;1.20;1.00
19017;DHT22;9641;51.494;6.670;2023-12-04T01:58:11;1.20;1.00
19017;DHT22;9641;51.494;6.670;2023-12-04T02:00:38;1.20;1.00
19017;DHT22;9641;51.494;6.670;2023-12-04T02:03:05;1.10;1.00
19017;DHT22;9641;51.494;6.670;2023-12-04T02:05:33;1.10;1.00
19017;DHT22;9641;51.494;6.670;2023-12-04T02:08:03;1.20;1.00
19017;DHT22;9641;51.494;6.670;2023-12-04T02:10:30;1.20;1.00
19017;DHT22;9641;51.494;6.670;2023-12-04T02:12:59;1.20;1.00
19017;DHT22;9641;51.494;6.670;2023-12-04T02:15:26;1.20;1.00
19017;DHT22;9641;51.494;6.670;2023-12-04T02:17:54;1.20;99.90
19017;DHT22;9641;51.494;6.670;2023-12-04T02:20:30;1.20;99.90
19017;DHT22;9641;51.494;6.670;2023-12-04T02:22:58;1.20;99.90
19017;DHT22;9641;51.494;6.670;2023-12-04T02:25:27;1.20;1.00
19017;DHT22;9641;51.494;6.670;2023-12-04T02:27:56;1.20;1.00
19017;DHT22;9641;51.494;6.670;2023-12-04T02:30:24;1.20;99.90
19017;DHT22;9641;51.494;6.670;2023-12-04T02:32:54;1.20;99.90
19017;DHT22;9641;51.494;6.670;2023-12-04T02:35:24;1.20;99.90
19017;DHT22;9641;51.494;6.670;2023-12-04T02:37:53;1.20;99.90
19017;DHT22;9641;51.494;6.670;2023-12-04T02:40:20;1.30;99.90
19017;DHT22;9641;51.494;6.670;2023-12-04T02:42:49;1.30;1.00
19017;DHT22;9641;51.494;6.670;2023-12-04T02:45:16;1.30;1.00
19017;DHT22;9641;51.494;6.670;2023-12-04T02:47:43;1.30;1.00
19017;DHT22;9641;51.494;6.670;2023-12-04T02:50:10;1.30;1.00
19017;DHT22;9641;51.494;6.670;2023-12-04T02:52:37;1.20;1.00
19017;DHT22;9641;51.494;6.670;2023-12-04T02:55:05;1.30;1.00
19017;DHT22;9641;51.494;6.670;2023-12-04T02:57:32;1.20;1.00
19017;DHT22;9641;51.494;6.670;2023-12-04T03:00:00;1.20;1.00
19017;DHT22;9641;51.494;6.670;2023-12-04T03:02:27;1.20;1.00
19017;DHT22;9641;51.494;6.670;2023-12-04T03:04:55;1.30;1.00
19017;DHT22;9641;51.494;6.670;2023-12-04T03:07:21;1.30;1.00
19017;DHT22;9641;51.494;6.670;2023-12-04T03:09:50;1.30;1.00
19017;DHT22;9641;51.494;6.670;2023-12-04T03:12:17;1.30;1.00
19017;DHT22;9641;51.494;6.670;2023-12-04T03:14:44;1.30;1.00
19017;DHT22;9641;51.494;6.670;2023-12-04T03:17:13;1.30;99.90
19017;DHT22;9641;51.494;6.670;2023-12-04T03:19:40;1.30;1.00
19017;DHT22;9641;51.494;6.670;2023-12-04T03:22:07;1.30;99.90
19017;DHT22;9641;51.494;6.670;2023-12-04T03:24:34;1.30;1.00
19017;DHT22;9641;51.494;6.670;2023-12-04T03:27:02;1.40;99.90
19017;DHT22;9641;51.494;6.670;2023-12-04T03:29:29;1.30;1.00
19017;DHT22;9641;51.494;6.670;2023-12-04T03:31:56;1.40;99.90
19017;DHT22;9641;51.494;6.670;2023-12-04T03:34:24;1.40;1.00
19017;DHT22;9641;51.494;6.670;2023-12-04T03:36:52;1.40;1.00
19017;DHT22;9641;51.494;6.670;2023-12-04T03:39:19;1.40;99.90
19017;DHT22;9641;51.494;6.670;2023-12-04T03:41:47;1.40;1.00
19017;DHT22;9641;51.494;6.670;2023-12-04T03:44:14;1.40;1.00
19017;DHT22;9641;51.494;6.670;2023-12-04T03:46:41;1.40;87.50
19017;DHT22;9641;51.494;6.670;2023-12-04T03:49:08;1.40;99.90
19017;DHT22;9641;51.494;6.670;2023-12-04T03:51:36;1.40;99.90
19017;DHT22;9641;51.494;6.670;2023-12-04T03:54:03;1.30;1.00
19017;DHT22;9641;51.494;6.670;2023-12-04T03:56:30;1.40;18.80
19017;DHT22;9641;51.494;6.670;2023-12-04T03:58:57;1.40;1.00
19017;DHT22;9641;51.494;6.670;2023-12-04T04:01:24;1.40;1.00
19017;DHT22;9641;51.494;6.670;2023-12-04T04:03:54;1.50;1.00
19017;DHT22;9641;51.494;6.670;2023-12-04T04:06:21;1.50;97.10
19017;DHT22;9641;51.494;6.670;2023-12-04T04:08:49;1.50;1.00
19017;DHT22;9641;51.494;6.670;2023-12-04T04:11:18;1.40;1.00
19017;DHT22;9641;51.494;6.670;2023-12-04T04:13:45;1.50;1.00
19017;DHT22;9641;51.494;6.670;2023-12-04T04:16:14;1.50;1.00
19017;DHT22;9641;51.494;6.670;2023-12-04T04:18:42;1.40;99.90
19017;DHT22;9641;51.494;6.670;2023-12-04T04:21:09;1.40;1.00
19017;DHT22;9641;51.494;6.670;2023-12-04T04:23:36;1.40;1.00
19017;DHT22;9641;51.494;6.670;2023-12-04T04:26:06;1.50;99.90
19017;DHT22;9641;51.494;6.670;2023-12-04T04:28:33;1.50;1.00
19017;DHT22;9641;51.494;6.670;2023-12-04T04:31:00;1.50;1.00
19017;DHT22;9641;51.494;6.670;2023-12-04T04:33:27;1.50;99.90
19017;DHT22;9641;51.494;6.670;2023-12-04T04:35:54;1.50;99.90
19017;DHT22;9641;51.494;6.670;2023-12-04T04:38:21;1.50;99.90
19017;DHT22;9641;51.494;6.670;2023-12-04T04:40:48;1.60;59.10
19017;DHT22;9641;51.494;6.670;2023-12-04T04:43:17;1.50;99.90
19017;DHT22;9641;51.494;6.670;2023-12-04T04:45:43;1.50;1.00
19017;DHT22;9641;51.494;6.670;2023-12-04T04:48:10;1.50;59.20
19017;DHT22;9641;51.494;6.670;2023-12-04T04:50:38;1.50;1.00
19017;DHT22;9641;51.494;6.670;2023-12-04T04:53:05;1.60;1.00
19017;DHT22;9641;51.494;6.670;2023-12-04T04:55:32;1.60;1.00
19017;DHT22;9641;51.494;6.670;2023-12-04T04:57:59;1.50;1.00
19017;DHT22;9641;51.494;6.670;2023-12-04T05:00:27;1.60;1.00
19017;DHT22;9641;51.494;6.670;2023-12-04T05:02:54;1.60;1.00
19017;DHT22;9641;51.494;6.670;2023-12-04T05:05:21;1.60;99.90
19017;DHT22;9641;51.494;6.670;2023-12-04T05:07:48;1.60;99.90
19017;DHT22;9641;51.494;6.670;2023-12-04T05:10:16;1.60;1.00
19017;DHT22;9641;51.494;6.670;2023-12-04T05:12:43;1.60;1.00
19017;DHT22;9641;51.494;6.670;2023-12-04T05:15:11;1.70;1.00
19017;DHT22;9641;51.494;6.670;2023-12-04T05:17:40;1.60;1.00
19017;DHT22;9641;51.494;6.670;2023-12-04T05:20:07;1.60;99.90
19017;DHT22;9641;51.494;6.670;2023-12-04T05:22:35;1.60;9.80
19017;DHT22;9641;51.494;6.670;2023-12-04T05:25:02;1.60;1.00
19017;DHT22;9641;51.494;6.670;2023-12-04T05:27:30;1.60;99.90
19017;DHT22;9641;51.494;6.670;2023-12-04T05:29:58;1.70;1.00
19017;DHT22;9641;51.494;6.670;2023-12-04T05:32:25;1.60;99.90
19017;DHT22;9641;51.494;6.670;2023-12-04T05:34:53;1.60;99.90
19017;DHT22;9641;51.494;6.670;2023-12-04T05:37:20;1.60;99.90
19017;DHT22;9641;51.494;6.670;2023-12-04T05:39:47;1.50;1.00
19017;DHT22;9641;51.494;6.670;2023-12-04T05:42:14;1.50;1.00
19017;DHT22;9641;51.494;6.670;2023-12-04T05:44:42;1.60;1.00
19017;DHT22;9641;51.494;6.670;2023-12-04T05:47:09;1.60;30.10
19017;DHT22;9641;51.494;6.670;2023-12-04T05:49:36;1.60;1.00
19017;DHT22;9641;51.494;6.670;2023-12-04T05:52:05;1.60;1.00
19017;DHT22;9641;51.494;6.670;2023-12-04T05:54:33;1.60;1.00
19017;DHT22;9641;51.494;6.670;2023-12-04T05:57:00;1.60;1.00
19017;DHT22;9641;51.494;6.670;2023-12-04T05:59:28;1.60;1.00
19017;DHT22;9641;51.494;6.670;2023-12-04T06:01:55;1.60;99.90
19017;DHT22;9641;51.494;6.670;2023-12-04T06:04:22;1.60;1.00
19017;DHT22;9641;51.494;6.670;2023-12-04T06:06:49;1.60;1.00
19017;DHT22;9641;51.494;6.670;2023-12-04T06:09:17;1.50;99.90
19017;DHT22;9641;51.494;6.670;2023-12-04T06:11:44;1.60;1.00
19017;DHT22;9641;51.494;6.670;2023-12-04T06:14:12;1.60;28.30
19017;DHT22;9641;51.494;6.670;2023-12-04T06:16:39;1.70;99.90
19017;DHT22;9641;51.494;6.670;2023-12-04T06:19:08;1.70;99.90
19017;DHT22;9641;51.494;6.670;2023-12-04T06:21:35;1.70;1.00
19017;DHT22;9641;51.494;6.670;2023-12-04T06:24:03;1.70;99.90
19017;DHT22;9641;51.494;6.670;2023-12-04T06:26:34;1.70;1.00
19017;DHT22;9641;51.494;6.670;2023-12-04T06:29:02;1.80;99.90
19017;DHT22;9641;51.494;6.670;2023-12-04T06:31:30;1.80;1.00
19017;DHT22;9641;51.494;6.670;2023-12-04T06:33:58;1.80;99.90
19017;DHT22;9641;51.494;6.670;2023-12-04T06:36:28;1.80;1.00
19017;DHT22;9641;51.494;6.670;2023-12-04T06:38:57;1.70;1.00
19017;DHT22;9641;51.494;6.670;2023-12-04T06:41:26;1.70;99.90
19017;DHT22;9641;51.494;6.670;2023-12-04T06:43:55;1.70;99.90
19017;DHT22;9641;51.494;6.670;2023-12-04T06:46:24;1.70;1.00
19017;DHT22;9641;51.494;6.670;2023-12-04T06:48:54;1.70;1.00
19017;DHT22;9641;51.494;6.670;2023-12-04T06:51:23;1.70;1.00
19017;DHT22;9641;51.494;6.670;2023-12-04T06:53:51;1.70;1.00
19017;DHT22;9641;51.494;6.670;2023-12-04T06:56:18;1.70;1.00
19017;DHT22;9641;51.494;6.670;2023-12-04T06:58:45;1.80;99.90
19017;DHT22;9641;51.494;6.670;2023-12-04T07:01:14;1.80;1.00
19017;DHT22;9641;51.494;6.670;2023-12-04T07:03:41;1.70;1.00
19017;DHT22;9641;51.494;6.670;2023-12-04T07:06:08;1.70;1.00
19017;DHT22;9641;51.494;6.670;2023-12-04T07:08:35;1.70;1.00
19017;DHT22;9641;51.494;6.670;2023-12-04T07:11:05;1.80;1.00
19017;DHT22;9641;51.494;6.670;2023-12-04T07:13:33;1.70;1.00
19017;DHT22;9641;51.494;6.670;2023-12-04T07:16:01;1.70;99.90
19017;DHT22;9641;51.494;6.670;2023-12-04T07:18:30;1.70;1.00
19017;DHT22;9641;51.494;6.670;2023-12-04T07:21:01;1.70;1.00
19017;DHT22;9641;51.494;6.670;2023-12-04T07:23:29;1.80;1.00
19017;DHT22;9641;51.494;6.670;2023-12-04T07:25:56;1.80;82.80
19017;DHT22;9641;51.494;6.670;2023-12-04T07:28:23;1.80;1.00
19017;DHT22;9641;51.494;6.670;2023-12-04T07:30:51;1.80;99.90
19017;DHT22;9641;51.494;6.670;2023-12-04T07:33:18;1.90;1.00
19017;DHT22;9641;51.494;6.670;2023-12-04T07:35:46;1.80;1.00
19017;DHT22;9641;51.494;6.670;2023-12-04T07:38:13;1.80;98.70
19017;DHT22;9641;51.494;6.670;2023-12-04T07:40:40;1.90;1.00
19017;DHT22;9641;51.494;6.670;2023-12-04T07:43:07;1.90;1.00
19017;DHT22;9641;51.494;6.670;2023-12-04T07:45:34;1.90;99.90
19017;DHT22;9641;51.494;6.670;2023-12-04T07:48:05;1.90;99.90
19017;DHT22;9641;51.494;6.670;2023-12-04T07:50:33;2.00;31.20
19017;DHT22;9641;51.494;6.670;2023-12-04T07:53:05;2.00;79.80
19017;DHT22;9641;51.494;6.670;2023-12-04T07:55:33;2.00;99.90
19017;DHT22;9641;51.494;6.670;2023-12-04T07:58:00;2.00;1.00
19017;DHT22;9641;51.494;6.670;2023-12-04T08:00:27;2.00;1.00
19017;DHT22;9641;51.494;6.670;2023-12-04T08:02:54;2.10;1.00
19017;DHT22;9641;51.494;6.670;2023-12-04T08:05:21;2.00;1.00
19017;DHT22;9641;51.494;6.670;2023-12-04T08:07:48;2.10;1.00
19017;DHT22;9641;51.494;6.670;2023-12-04T08:10:17;2.10;1.00
19017;DHT22;9641;51.494;6.670;2023-12-04T08:12:44;2.10;1.00
19017;DHT22;9641;51.494;6.670;2023-12-04T08:15:12;2.10;1.00
19017;DHT22;9641;51.494;6.670;2023-12-04T08:17:40;2.20;1.00
19017;DHT22;9641;51.494;6.670;2023-12-04T08:20:08;2.20;1.00
19017;DHT22;9641;51.494;6.670;2023-12-04T08:22:39;2.20;99.90
19017;DHT22;9641;51.494;6.670;2023-12-04T08:25:06;2.20;1.00
19017;DHT22;9641;51.494;6.670;2023-12-04T08:27:34;2.30;1.00
19017;DHT22;9641;51.494;6.670;2023-12-04T08:30:02;2.40;1.00
19017;DHT22;9641;51.494;6.670;2023-12-04T08:32:30;2.40;99.90
19017;DHT22;9641;51.494;6.670;2023-12-04T08:34:57;2.50;1.00
19017;DHT22;9641;51.494;6.670;2023-12-04T08:37:25;2.60;1.00
19017;DHT22;9641;51.494;6.670;2023-12-04T08:39:52;2.60;1.00
19017;DHT22;9641;51.494;6.670;2023-12-04T08:42:20;2.60;1.00
19017;DHT22;9641;51.494;6.670;2023-12-04T08:44:49;2.70;1.00
19017;DHT22;9641;51.494;6.670;2023-12-04T08:47:16;2.70;1.00
19017;DHT22;9641;51.494;6.670;2023-12-04T08:49:44;2.70;1.00
19017;DHT22;9641;51.494;6.670;2023-12-04T08:52:12;2.70;1.00
19017;DHT22;9641;51.494;6.670;2023-12-04T08:54:40;2.80;1.00
19017;DHT22;9641;51.494;6.670;2023-12-04T08:57:07;2.80;99.90
19017;DHT22;9641;51.494;6.670;2023-12-04T08:59:35;2.80;99.90
19017;DHT22;9641;51.494;6.670;2023-12-04T09:02:04;2.80;99.90
19017;DHT22;9641;51.494;6.670;2023-12-04T09:04:31;2.80;99.90
19017;DHT22;9641;51.494;6.670;2023-12-04T09:06:58;2.80;1.00
19017;DHT22;9641;51.494;6.670;2023-12-04T09:09:26;2.90;1.00
19017;DHT22;9641;51.494;6.670;2023-12-04T09:11:54;3.00;1.00
19017;DHT22;9641;51.494;6.670;2023-12-04T09:14:22;2.90;1.00
19017;DHT22;9641;51.494;6.670;2023-12-04T09:16:49;3.00;1.00
19017;DHT22;9641;51.494;6.670;2023-12-04T09:19:18;3.10;1.00
19017;DHT22;9641;51.494;6.670;2023-12-04T09:21:45;3.10;99.90
19017;DHT22;9641;51.494;6.670;2023-12-04T09:24:12;3.20;99.90
19017;DHT22;9641;51.494;6.670;2023-12-04T09:26:40;3.30;1.00
19017;DHT22;9641;51.494;6.670;2023-12-04T09:29:11;3.30;1.00
19017;DHT22;9641;51.494;6.670;2023-12-04T09:31:38;3.30;1.00
19017;DHT22;9641;51.494;6.670;2023-12-04T09:34:05;3.20;10.80
19017;DHT22;9641;51.494;6.670;2023-12-04T09:36:35;3.20;1.00
19017;DHT22;9641;51.494;6.670;2023-12-04T09:39:03;3.20;1.00
19017;DHT22;9641;51.494;6.670;2023-12-04T09:41:32;3.20;1.00
19017;DHT22;9641;51.494;6.670;2023-12-04T09:43:59;3.30;99.90
19017;DHT22;9641;51.494;6.670;2023-12-04T09:46:28;3.30;1.00
19017;DHT22;9641;51.494;6.670;2023-12-04T09:48:56;3.30;1.00
19017;DHT22;9641;51.494;6.670;2023-12-04T09:51:24;3.30;1.00
19017;DHT22;9641;51.494;6.670;2023-12-04T09:53:56;3.40;99.90
19017;DHT22;9641;51.494;6.670;2023-12-04T09:56:23;3.50;99.90
19017;DHT22;9641;51.494;6.670;2023-12-04T09:58:55;3.50;99.90
19017;DHT22;9641;51.494;6.670;2023-12-04T10:01:24;3.60;99.90
19017;DHT22;9641;51.494;6.670;2023-12-04T10:03:52;3.60;99.90
19017;DHT22;9641;51.494;6.670;2023-12-04T10:06:19;3.60;99.90
19017;DHT22;9641;51.494;6.670;2023-12-04T10:08:46;3.70;99.90
19017;DHT22;9641;51.494;6.670;2023-12-04T10:11:15;3.70;93.60
19017;DHT22;9641;51.494;6.670;2023-12-04T10:13:42;3.80;99.90
19017;DHT22;9641;51.494;6.670;2023-12-04T10:16:12;3.80;99.90
19017;DHT22;9641;51.494;6.670;2023-12-04T10:18:39;3.70;99.90
19017;DHT22;9641;51.494;6.670;2023-12-04T10:21:07;3.70;1.00
19017;DHT22;9641;51.494;6.670;2023-12-04T10:23:37;3.70;1.00
19017;DHT22;9641;51.494;6.670;2023-12-04T10:26:05;3.80;1.00
19017;DHT22;9641;51.494;6.670;2023-12-04T10:28:36;3.80;20.10
19017;DHT22;9641;51.494;6.670;2023-12-04T10:31:04;3.80;12.40
19017;DHT22;9641;51.494;6.670;2023-12-04T10:33:32;3.80;99.90
19017;DHT22;9641;51.494;6.670;2023-12-04T10:35:59;3.80;1.00
19017;DHT22;9641;51.494;6.670;2023-12-04T10:38:28;3.90;1.00
19017;DHT22;9641;51.494;6.670;2023-12-04T10:40:55;3.80;1.00
19017;DHT22;9641;51.494;6.670;2023-12-04T10:43:25;3.90;1.00
19017;DHT22;9641;51.494;6.670;2023-12-04T10:45:57;3.90;1.00
19017;DHT22;9641;51.494;6.670;2023-12-04T10:48:24;4.00;1.00
19017;DHT22;9641;51.494;6.670;2023-12-04T10:51:04;3.90;1.00
19017;DHT22;9641;51.494;6.670;2023-12-04T10:53:32;4.00;1.00
19017;DHT22;9641;51.494;6.670;2023-12-04T10:55:59;4.00;1.00
19017;DHT22;9641;51.494;6.670;2023-12-04T10:58:28;4.00;1.00
19017;DHT22;9641;51.494;6.670;2023-12-04T11:00:58;4.10;1.00
19017;DHT22;9641;51.494;6.670;2023-12-04T11:03:32;4.10;1.00
19017;DHT22;9641;51.494;6.670;2023-12-04T11:06:02;4.10;1.00
19017;DHT22;9641;51.494;6.670;2023-12-04T11:08:33;4.10;1.00
19017;DHT22;9641;51.494;6.670;2023-12-04T11:11:03;4.10;1.00
19017;DHT22;9641;51.494;6.670;2023-12-04T11:13:35;4.20;1.00
19017;DHT22;9641;51.494;6.670;2023-12-04T11:16:09;4.20;1.00
19017;DHT22;9641;51.494;6.670;2023-12-04T11:18:43;4.20;1.00
19017;DHT22;9641;51.494;6.670;2023-12-04T11:21:11;4.10;1.00
19017;DHT22;9641;51.494;6.670;2023-12-04T11:23:38;4.10;1.00
19017;DHT22;9641;51.494;6.670;2023-12-04T11:26:08;4.20;1.00
19017;DHT22;9641;51.494;6.670;2023-12-04T11:28:36;4.20;1.00
19017;DHT22;9641;51.494;6.670;2023-12-04T11:31:06;4.10;1.00
19017;DHT22;9641;51.494;6.670;2023-12-04T11:33:37;4.10;99.90
19017;DHT22;9641;51.494;6.670;2023-12-04T11:36:12;4.10;1.00
19017;DHT22;9641;51.494;6.670;2023-12-04T11:38:44;4.10;67.40
19017;DHT22;9641;51.494;6.670;2023-12-04T11:41:16;4.00;99.90
19017;DHT22;9641;51.494;6.670;2023-12-04T11:43:45;4.00;99.90
19017;DHT22;9641;51.494;6.670;2023-12-04T11:46:19;4.00;1.00
19017;DHT22;9641;51.494;6.670;2023-12-04T11:48:49;3.90;99.90
19017;DHT22;9641;51.494;6.670;2023-12-04T11:51:45;3.90;1.00
19017;DHT22;9641;51.494;6.670;2023-12-04T11:54:18;3.80;1.00
19017;DHT22;9641;51.494;6.670;2023-12-04T11:57:19;3.80;10.80
19017;DHT22;9641;51.494;6.670;2023-12-04T11:59:47;3.60;1.00
19017;DHT22;9641;51.494;6.670;2023-12-04T12:02:16;3.60;1.00
19017;DHT22;9641;51.494;6.670;2023-12-04T12:04:44;3.60;1.00
19017;DHT22;9641;51.494;6.670;2023-12-04T12:07:12;3.70;1.00
19017;DHT22;9641;51.494;6.670;2023-12-04T12:09:41;3.60;1.00
19017;DHT22;9641;51.494;6.670;2023-12-04T12:12:09;3.50;1.00
19017;DHT22;9641;51.494;6.670;2023-12-04T12:14:36;3.50;1.00
19017;DHT22;9641;51.494;6.670;2023-12-04T12:17:04;3.50;1.00
19017;DHT22;9641;51.494;6.670;2023-12-04T12:19:33;3.40;1.00
19017;DHT22;9641;51.494;6.670;2023-12-04T12:22:00;3.40;1.00
19017;DHT22;9641;51.494;6.670;2023-12-04T12:24:28;3.50;1.00
19017;DHT22;9641;51.494;6.670;2023-12-04T12:26:56;3.50;1.00
19017;DHT22;9641;51.494;6.670;2023-12-04T12:29:25;3.60;1.00
19017;DHT22;9641;51.494;6.670;2023-12-04T12:31:54;3.60;1.00
19017;DHT22;9641;51.494;6.670;2023-12-04T12:34:22;3.70;39.30
19017;DHT22;9641;51.494;6.670;2023-12-04T12:36:51;3.60;17.10
19017;DHT22;9641;51.494;6.670;2023-12-04T12:39:18;3.60;99.90
19017;DHT22;9641;51.494;6.670;2023-12-04T12:41:50;3.50;1.00
19017;DHT22;9641;51.494;6.670;2023-12-04T12:44:18;3.40;1.00
19017;DHT22;9641;51.494;6.670;2023-12-04T12:46:48;3.50;99.90
19017;DHT22;9641;51.494;6.670;2023-12-04T12:49:19;3.40;99.90
19017;DHT22;9641;51.494;6.670;2023-12-04T12:51:47;3.40;99.90
19017;DHT22;9641;51.494;6.670;2023-12-04T12:54:17;3.40;99.90
19017;DHT22;9641;51.494;6.670;2023-12-04T12:56:44;3.60;1.00
19017;DHT22;9641;51.494;6.670;2023-12-04T12:59:14;3.50;1.00
19017;DHT22;9641;51.494;6.670;2023-12-04T13:01:44;3.60;1.00
19017;DHT22;9641;51.494;6.670;2023-12-04T13:04:14;3.80;1.00
19017;DHT22;9641;51.494;6.670;2023-12-04T13:06:42;3.80;1.00
19017;DHT22;9641;51.494;6.670;2023-12-04T13:09:09;3.80;1.00
19017;DHT22;9641;51.494;6.670;2023-12-04T13:11:45;3.90;1.00
19017;DHT22;9641;51.494;6.670;2023-12-04T13:14:14;3.70;1.00
19017;DHT22;9641;51.494;6.670;2023-12-04T13:16:41;3.80;1.00
19017;DHT22;9641;51.494;6.670;2023-12-04T13:19:11;3.80;1.00
19017;DHT22;9641;51.494;6.670;2023-12-04T13:21:39;3.80;1.00
19017;DHT22;9641;51.494;6.670;2023-12-04T13:24:07;3.70;1.00
19017;DHT22;9641;51.494;6.670;2023-12-04T13:26:36;3.60;1.00
19017;DHT22;9641;51.494;6.670;2023-12-04T13:29:06;3.70;1.00
19017;DHT22;9641;51.494;6.670;2023-12-04T13:31:35;3.70;1.00
19017;DHT22;9641;51.494;6.670;2023-12-04T13:34:03;3.70;1.00
19017;DHT22;9641;51.494;6.670;2023-12-04T13:36:34;3.60;1.00
19017;DHT22;9641;51.494;6.670;2023-12-04T13:39:03;3.60;1.00
19017;DHT22;9641;51.494;6.670;2023-12-04T13:41:43;3.60;1.00
19017;DHT22;9641;51.494;6.670;2023-12-04T13:44:30;3.50;1.00
19017;DHT22;9641;51.494;6.670;2023-12-04T13:47:00;3.60;1.00
19017;DHT22;9641;51.494;6.670;2023-12-04T13:49:27;3.60;1.00
19017;DHT22;9641;51.494;6.670;2023-12-04T13:51:55;3.60;1.00
19017;DHT22;9641;51.494;6.670;2023-12-04T13:54:23;3.50;9.80
19017;DHT22;9641;51.494;6.670;2023-12-04T13:57:01;3.50;17.00
19017;DHT22;9641;51.494;6.670;2023-12-04T13:59:31;3.60;18.90
19017;DHT22;9641;51.494;6.670;2023-12-04T14:02:00;3.60;1.00
19017;DHT22;9641;51.494;6.670;2023-12-04T14:04:30;3.60;29.40
19017;DHT22;9641;51.494;6.670;2023-12-04T14:06:57;3.50;46.10
19017;DHT22;9641;51.494;6.670;2023-12-04T14:09:24;3.60;50.20
19017;DHT22;9641;51.494;6.670;2023-12-04T14:11:53;3.70;32.70
19017;DHT22;9641;51.494;6.670;2023-12-04T14:14:20;3.70;8.10
19017;DHT22;9641;51.494;6.670;2023-12-04T14:16:50;3.60;26.40
19017;DHT22;9641;51.494;6.670;2023-12-04T14:19:17;3.50;45.00
19017;DHT22;9641;51.494;6.670;2023-12-04T14:21:47;3.50;60.20
19017;DHT22;9641;51.494;6.670;2023-12-04T14:24:14;3.50;58.00
19017;DHT22;9641;51.494;6.670;2023-12-04T14:26:42;3.50;47.90
19017;DHT22;9641;51.494;6.670;2023-12-04T14:29:10;3.50;37.20
19017;DHT22;9641;51.494;6.670;2023-12-04T14:31:39;3.50;42.40
19017;DHT22;9641;51.494;6.670;2023-12-04T14:34:08;3.50;46.90
19017;DHT22;9641;51.494;6.670;2023-12-04T14:36:41;3.50;44.90
19017;DHT22;9641;51.494;6.670;2023-12-04T14:39:10;3.40;51.80
19017;DHT22;9641;51.494;6.670;2023-12-04T14:41:38;3.40;72.10
19017;DHT22;9641;51.494;6.670;2023-12-04T14:44:07;3.40;88.60
19017;DHT22;9641;51.494;6.670;2023-12-04T14:46:37;3.50;57.20
19017;DHT22;9641;51.494;6.670;2023-12-04T14:49:15;3.40;59.30
19017;DHT22;9641;51.494;6.670;2023-12-04T14:52:11;3.40;74.70
19017;DHT22;9641;51.494;6.670;2023-12-04T14:55:10;3.50;64.50
19017;DHT22;9641;51.494;6.670;2023-12-04T14:57:56;3.40;23.40
19017;DHT22;9641;51.494;6.670;2023-12-04T15:00:59;3.50;16.00
19017;DHT22;9641;51.494;6.670;2023-12-04T15:04:25;3.40;38.60
19017;DHT22;9641;51.494;6.670;2023-12-04T15:07:10;3.50;37.10
19017;DHT22;9641;51.494;6.670;2023-12-04T15:09:54;3.50;40.60
19017;DHT22;9641;51.494;6.670;2023-12-04T15:12:41;3.60;30.20
19017;DHT22;9641;51.494;6.670;2023-12-04T15:15:25;3.50;67.40
19017;DHT22;9641;51.494;6.670;2023-12-04T15:18:07;3.40;99.90
19017;DHT22;9641;51.494;6.670;2023-12-04T15:21:03;3.30;99.90
19017;DHT22;9641;51.494;6.670;2023-12-04T15:23:34;3.30;99.90
19017;DHT22;9641;51.494;6.670;2023-12-04T15:26:01;3.30;99.90
19017;DHT22;9641;51.494;6.670;2023-12-04T15:28:53;3.30;99.90
19017;DHT22;9641;51.494;6.670;2023-12-04T15:31:27;3.30;99.90
19017;DHT22;9641;51.494;6.670;2023-12-04T15:33:58;3.30;96.90
19017;DHT22;9641;51.494;6.670;2023-12-04T15:36:25;3.30;91.50
19017;DHT22;9641;51.494;6.670;2023-12-04T15:38:53;3.30;80.50
19017;DHT22;9641;51.494;6.670;2023-12-04T15:41:20;3.20;93.50
19017;DHT22;9641;51.494;6.670;2023-12-04T15:43:47;3.20;99.90
19017;DHT22;9641;51.494;6.670;2023-12-04T15:46:15;3.20;99.90
19017;DHT22;9641;51.494;6.670;2023-12-04T15:48:56;3.20;99.90
19017;DHT22;9641;51.494;6.670;2023-12-04T15:51:25;3.20;91.60
19017;DHT22;9641;51.494;6.670;2023-12-04T15:53:52;3.20;99.90
19017;DHT22;9641;51.494;6.670;2023-12-04T15:56:19;3.20;99.90
19017;DHT22;9641;51.494;6.670;2023-12-04T15:58:47;3.20;99.90
19017;DHT22;9641;51.494;6.670;2023-12-04T16:01:15;3.10;99.90
19017;DHT22;9641;51.494;6.670;2023-12-04T16:03:44;3.00;99.90
19017;DHT22;9641;51.494;6.670;2023-12-04T16:06:14;2.90;99.90
19017;DHT22;9641;51.494;6.670;2023-12-04T16:08:46;2.90;99.90
19017;DHT22;9641;51.494;6.670;2023-12-04T16:11:16;2.80;99.90
19017;DHT22;9641;51.494;6.670;2023-12-04T16:13:44;2.80;99.90
19017;DHT22;9641;51.494;6.670;2023-12-04T16:16:12;2.80;99.90
19017;DHT22;9641;51.494;6.670;2023-12-04T16:18:39;2.80;99.90
19017;DHT22;9641;51.494;6.670;2023-12-04T16:21:10;2.80;99.90
19017;DHT22;9641;51.494;6.670;2023-12-04T16:23:38;2.70;99.90